Terminal Aerodrome Forecast
Issued by NWS

Home | Current Version | Previous Version | Text Only | Print | Product List | Glossary On
Versions: 1 2 3 4 5 6 7 8 9 10 11 12 13 14 15
000
FTUS46 KSEW 291453 AAB
TAFOLM
TAF AMD
KOLM 291453Z 2915/3012 19010G20KT P6SM FEW050 OVC080
     FM291700 22018G28KT 4SM RA BKN025 OVC040
     FM292100 22018G28KT P6SM -SHRA SCT030 BKN040 OVC050
     FM300000 19010KT P6SM -RA BKN028 OVC040=

USA.gov is the U.S. government's official web portal to all federal, state and local government web resources and services.